Time;durP1;ratioP1;P1;durP2;ratioP2;P2;SDS_P1;SDS_P2;PMS_P1;PMS_P2;Temp;Humidity;BMP_temperature;BMP_pressure;BME280_temperature;BME280_humidity;BME280_pressure;Samples;Min_cycle;Max_cycle;Signal;HPM_P1;HPM_P2
2024/01/17 00:01:43;;;;;;;13.70;6.12;;;-2.50;99.90;;;;;;7336865;32;20555;-56
2024/01/17 00:05:45;;;;;;;10.38;5.95;;;-2.60;99.90;;;;;;7338620;32;20351;-55
2024/01/17 00:09:47;;;;;;;11.40;5.62;;;-2.60;99.90;;;;;;7339110;32;20130;-56
2024/01/17 00:13:49;;;;;;;11.45;5.07;;;-2.60;99.90;;;;;;7327854;32;20437;-55
2024/01/17 00:17:51;;;;;;;13.93;6.32;;;-2.70;99.90;;;;;;7335013;32;20671;-55
2024/01/17 00:21:53;;;;;;;12.27;5.90;;;-2.60;99.90;;;;;;7337759;32;20172;-55
2024/01/17 00:25:54;;;;;;;11.60;5.32;;;-2.70;99.90;;;;;;7336841;32;20637;-55
2024/01/17 00:29:59;;;;;;;9.88;5.28;;;-2.60;99.90;;;;;;7337669;32;20159;-55
2024/01/17 00:34:01;;;;;;;9.55;5.15;;;-2.60;99.90;;;;;;7324634;32;20480;-55
2024/01/17 00:38:03;;;;;;;9.80;5.05;;;-2.50;99.90;;;;;;7332818;32;20352;-55
2024/01/17 00:42:06;;;;;;;10.43;5.60;;;-2.60;99.90;;;;;;7340651;32;20108;-55
2024/01/17 00:46:08;;;;;;;11.70;5.32;;;-2.60;99.90;;;;;;7337677;32;20126;-57
2024/01/17 00:50:10;;;;;;;9.32;4.97;;;-2.70;99.90;;;;;;7336199;32;20234;-56
2024/01/17 00:54:11;;;;;;;9.82;4.68;;;-2.70;99.90;;;;;;7343533;32;20532;-55
2024/01/17 00:58:13;;;;;;;10.65;4.68;;;-2.60;99.90;;;;;;7336938;32;20301;-53
2024/01/17 01:02:15;;;;;;;8.68;4.50;;;-2.60;99.90;;;;;;7343191;32;20767;-54
2024/01/17 01:06:17;;;;;;;11.57;4.65;;;-2.70;99.90;;;;;;7344806;32;20786;-54
2024/01/17 01:10:18;;;;;;;11.95;5.10;;;-2.60;99.90;;;;;;7339351;32;20117;-54
2024/01/17 01:14:20;;;;;;;11.65;4.70;;;-2.70;99.90;;;;;;7344608;32;20233;-54
2024/01/17 01:18:22;;;;;;;11.35;4.93;;;-2.70;99.90;;;;;;7340835;32;20715;-54
2024/01/17 01:22:24;;;;;;;11.40;4.80;;;-2.60;99.90;;;;;;7337683;32;20127;-55
2024/01/17 01:26:26;;;;;;;9.55;4.20;;;-2.60;99.90;;;;;;7336915;32;20149;-56
2024/01/17 01:30:28;;;;;;;8.43;4.30;;;-2.70;99.90;;;;;;7339470;32;20190;-54
2024/01/17 01:34:30;;;;;;;9.02;4.00;;;-2.80;99.90;;;;;;7343236;32;20449;-55
2024/01/17 01:38:32;;;;;;;10.57;4.82;;;-2.70;99.90;;;;;;7342685;32;20124;-54
2024/01/17 01:42:34;;;;;;;10.43;4.85;;;-2.60;99.90;;;;;;7341374;32;20565;-54
2024/01/17 01:46:36;;;;;;;10.20;4.60;;;-2.60;99.90;;;;;;7342989;32;20149;-54
2024/01/17 01:50:38;;;;;;;10.05;4.78;;;-2.60;99.90;;;;;;7329686;32;20139;-55
2024/01/17 01:54:40;;;;;;;11.30;4.93;;;-2.60;99.90;;;;;;7337340;32;20107;-55
2024/01/17 01:58:44;;;;;;;8.70;4.25;;;-2.40;99.90;;;;;;7347027;32;20118;-55
2024/01/17 02:02:46;;;;;;;14.15;4.80;;;-2.50;99.90;;;;;;7339822;32;20156;-57
2024/01/17 02:06:49;;;;;;;11.55;5.65;;;-2.60;99.90;;;;;;7341963;32;20704;-55
2024/01/17 02:10:51;;;;;;;13.40;4.93;;;-2.60;99.90;;;;;;7325963;32;20127;-54
2024/01/17 02:14:53;;;;;;;12.18;5.07;;;-2.50;99.90;;;;;;7332260;32;20457;-54
2024/01/17 02:18:55;;;;;;;12.57;5.03;;;-2.60;99.90;;;;;;7343796;32;20227;-54
2024/01/17 02:22:57;;;;;;;10.95;4.85;;;-2.50;99.90;;;;;;7340123;32;20266;-55
2024/01/17 02:26:59;;;;;;;9.20;4.50;;;-2.60;99.90;;;;;;7334359;32;20104;-54
2024/01/17 02:31:03;;;;;;;8.35;4.60;;;-2.50;99.90;;;;;;7336135;32;20201;-55
2024/01/17 02:35:06;;;;;;;9.98;5.07;;;-2.40;99.90;;;;;;7339840;32;20930;-55
2024/01/17 02:39:09;;;;;;;13.35;5.53;;;-2.40;99.90;;;;;;7345352;32;20231;-54
2024/01/17 02:43:11;;;;;;;10.95;4.70;;;-2.40;99.90;;;;;;7345429;32;20107;-54
2024/01/17 02:47:13;;;;;;;13.18;5.05;;;-2.40;99.90;;;;;;7337949;32;20099;-55
2024/01/17 02:51:14;;;;;;;11.00;5.20;;;-2.40;99.90;;;;;;7341716;32;20195;-56
2024/01/17 02:55:16;;;;;;;10.73;5.22;;;-2.40;99.90;;;;;;7346427;32;20129;-55
2024/01/17 02:59:18;;;;;;;13.30;5.43;;;-2.40;99.90;;;;;;7341750;32;20134;-55
2024/01/17 03:03:20;;;;;;;13.88;5.55;;;-2.40;99.90;;;;;;7330097;32;20130;-55
2024/01/17 03:07:22;;;;;;;8.65;4.80;;;-2.50;99.90;;;;;;7344789;32;20178;-55
2024/01/17 03:11:24;;;;;;;9.85;4.85;;;-2.40;99.90;;;;;;7339642;32;20103;-54
2024/01/17 03:15:25;;;;;;;10.32;4.95;;;-2.40;99.90;;;;;;7342150;32;20229;-54
2024/01/17 03:19:27;;;;;;;16.58;5.62;;;-2.40;99.90;;;;;;7348162;32;20164;-55
2024/01/17 03:23:29;;;;;;;13.75;5.10;;;-2.40;99.90;;;;;;7337685;32;20145;-54
2024/01/17 03:27:31;;;;;;;10.38;5.37;;;-2.40;99.90;;;;;;7337906;32;20195;-54
2024/01/17 03:31:33;;;;;;;10.45;5.85;;;-2.50;99.90;;;;;;7344026;32;20252;-54
2024/01/17 03:35:35;;;;;;;8.60;5.35;;;-2.50;99.90;;;;;;7342990;32;20175;-55
2024/01/17 03:39:37;;;;;;;11.38;5.60;;;-2.50;99.90;;;;;;7344815;32;20551;-54
2024/01/17 03:43:39;;;;;;;9.52;5.20;;;-2.60;99.90;;;;;;7333584;32;20142;-54
2024/01/17 03:47:40;;;;;;;10.70;5.32;;;-2.60;99.90;;;;;;7326018;32;20208;-55
2024/01/17 03:51:43;;;;;;;10.18;5.53;;;-2.60;99.90;;;;;;7338396;32;20255;-55
2024/01/17 03:55:45;;;;;;;13.55;6.35;;;-2.60;99.90;;;;;;7324796;32;20655;-54
2024/01/17 03:59:46;;;;;;;10.68;4.97;;;-2.70;99.90;;;;;;7318302;32;20129;-54
2024/01/17 04:03:49;;;;;;;12.90;5.78;;;-2.80;99.90;;;;;;7336291;32;20323;-53
2024/01/17 04:07:50;;;;;;;12.05;6.28;;;-2.70;99.90;;;;;;7341648;32;20688;-54
2024/01/17 04:11:52;;;;;;;12.40;5.95;;;-2.70;99.90;;;;;;7340331;32;20116;-53
2024/01/17 04:15:54;;;;;;;14.60;6.37;;;-2.70;99.90;;;;;;7339932;32;20623;-54
2024/01/17 04:19:56;;;;;;;12.45;6.43;;;-2.70;99.90;;;;;;7341719;32;20111;-55
2024/01/17 04:23:57;;;;;;;11.68;6.12;;;-2.80;99.90;;;;;;7338162;32;20476;-54
2024/01/17 04:27:59;;;;;;;16.27;5.78;;;-2.80;99.90;;;;;;7332705;32;20491;-55
2024/01/17 04:32:01;;;;;;;14.32;7.03;;;-2.80;99.90;;;;;;7336886;32;20198;-55
2024/01/17 04:36:03;;;;;;;11.23;5.62;;;-2.70;99.90;;;;;;7342086;32;20137;-55
2024/01/17 04:40:07;;;;;;;11.57;6.07;;;-2.70;99.90;;;;;;7340074;32;20636;-54
2024/01/17 04:44:09;;;;;;;12.43;6.85;;;-2.70;99.90;;;;;;7329148;32;20514;-55
2024/01/17 04:48:13;;;;;;;17.50;6.47;;;-2.80;99.90;;;;;;7342779;32;20502;-55
2024/01/17 04:52:17;;;;;;;15.27;7.18;;;-2.80;99.90;;;;;;7341751;32;20564;-54
2024/01/17 04:56:19;;;;;;;17.20;7.28;;;-2.70;99.90;;;;;;7339409;32;20205;-55
2024/01/17 05:00:21;;;;;;;11.27;6.60;;;-2.80;99.90;;;;;;7339959;32;20190;-53
2024/01/17 05:04:23;;;;;;;15.50;7.30;;;-2.80;99.90;;;;;;7342166;32;20383;-53
2024/01/17 05:08:25;;;;;;;14.02;7.05;;;-2.80;99.90;;;;;;7334610;32;20183;-55
2024/01/17 05:12:27;;;;;;;12.95;7.18;;;-2.70;99.90;;;;;;7339308;32;20108;-55
2024/01/17 05:16:28;;;;;;;15.30;7.18;;;-2.70;99.90;;;;;;7336000;32;20112;-55
2024/01/17 05:20:30;;;;;;;16.73;7.60;;;-2.60;99.90;;;;;;7338832;32;20146;-54
2024/01/17 05:24:32;;;;;;;13.27;7.47;;;-2.70;99.90;;;;;;7338921;32;20223;-53
2024/01/17 05:28:35;;;;;;;16.62;7.78;;;-2.60;99.90;;;;;;7339092;32;20253;-55
2024/01/17 05:32:38;;;;;;;15.82;7.32;;;-2.60;99.90;;;;;;7333788;32;20234;-55
2024/01/17 05:36:43;;;;;;;11.73;6.82;;;-2.60;99.90;;;;;;7340253;32;20130;-54
2024/01/17 05:40:45;;;;;;;13.23;7.03;;;-2.60;99.90;;;;;;7331771;32;20103;-54
2024/01/17 05:44:47;;;;;;;16.08;7.40;;;-2.60;99.90;;;;;;7324273;32;20533;-54
2024/01/17 05:48:49;;;;;;;15.27;7.18;;;-2.60;99.90;;;;;;7334720;32;20111;-54
2024/01/17 05:52:51;;;;;;;18.40;7.90;;;-2.60;99.90;;;;;;7334173;32;20634;-54
2024/01/17 05:56:52;;;;;;;18.35;6.78;;;-2.50;99.90;;;;;;7334664;32;20190;-54
2024/01/17 06:00:54;;;;;;;12.88;6.57;;;-2.50;99.90;;;;;;7334657;32;20232;-55
2024/01/17 06:04:56;;;;;;;15.43;7.30;;;-2.40;99.90;;;;;;7339796;32;20479;-55
2024/01/17 06:08:58;;;;;;;12.80;6.50;;;-2.30;99.90;;;;;;7332172;32;20107;-55
2024/01/17 06:13:00;;;;;;;12.85;6.90;;;-2.20;99.90;;;;;;7342576;32;20115;-54
2024/01/17 06:17:02;;;;;;;14.10;6.45;;;-2.20;99.90;;;;;;7336816;32;20253;-54
2024/01/17 06:21:04;;;;;;;10.70;6.43;;;-2.20;99.90;;;;;;7332559;32;20323;-55
2024/01/17 06:25:07;;;;;;;11.12;6.07;;;-2.10;99.90;;;;;;7343465;32;20099;-55
2024/01/17 06:29:10;;;;;;;13.95;6.37;;;-2.10;99.90;;;;;;7343543;32;20611;-55
2024/01/17 06:33:12;;;;;;;15.85;6.37;;;-2.10;99.90;;;;;;7344167;32;20197;-55
2024/01/17 06:37:13;;;;;;;14.15;6.37;;;-2.10;99.90;;;;;;7339520;32;20210;-55
2024/01/17 06:41:17;;;;;;;13.43;6.50;;;-2.10;99.90;;;;;;7343329;32;20234;-55
2024/01/17 06:45:18;;;;;;;12.23;6.15;;;-2.10;99.90;;;;;;7342555;32;20580;-55
2024/01/17 06:49:20;;;;;;;10.40;6.05;;;-2.10;99.90;;;;;;7338570;32;20281;-55
2024/01/17 06:53:22;;;;;;;15.40;6.45;;;-2.10;99.90;;;;;;7339885;32;20144;-55
2024/01/17 06:57:24;;;;;;;18.37;6.75;;;-2.10;99.90;;;;;;7336091;32;20254;-55
2024/01/17 07:01:26;;;;;;;12.77;7.15;;;-2.10;99.90;;;;;;7341849;32;20143;-56
2024/01/17 07:05:28;;;;;;;14.30;6.80;;;-2.10;99.90;;;;;;7340231;32;20107;-56
2024/01/17 07:09:30;;;;;;;12.02;6.60;;;-1.90;99.90;;;;;;7342141;32;20111;-56
2024/01/17 07:13:32;;;;;;;13.50;6.57;;;-2.00;99.90;;;;;;7343878;32;20226;-56
2024/01/17 07:17:34;;;;;;;12.65;6.15;;;-1.90;99.90;;;;;;7341972;32;20281;-56
2024/01/17 07:21:39;;;;;;;8.85;5.47;;;-1.90;99.90;;;;;;7342083;32;20172;-56
2024/01/17 07:25:43;;;;;;;13.57;6.55;;;-1.90;99.90;;;;;;7338732;32;20231;-56
2024/01/17 07:29:45;;;;;;;13.98;6.45;;;-1.90;99.90;;;;;;7339588;32;20159;-56
2024/01/17 07:33:47;;;;;;;13.52;6.30;;;-1.80;99.90;;;;;;7345001;32;20246;-56
2024/01/17 07:37:50;;;;;;;14.13;5.65;;;-1.80;99.90;;;;;;7335700;32;20531;-58
2024/01/17 07:46:56;;;;;;;14.15;5.95;;;-1.80;99.90;;;;;;7332200;32;20198;-58
2024/01/17 07:50:58;;;;;;;13.50;5.97;;;-1.80;99.90;;;;;;7341668;32;20249;-57
2024/01/17 07:55:00;;;;;;;11.95;5.93;;;-1.80;99.90;;;;;;7334065;32;20199;-57
2024/01/17 07:59:02;;;;;;;18.02;5.78;;;-1.80;99.90;;;;;;7333477;32;20171;-58
2024/01/17 08:03:04;;;;;;;12.48;6.15;;;-1.60;99.90;;;;;;7340806;32;20095;-56
2024/01/17 08:07:06;;;;;;;13.35;5.93;;;-1.60;99.90;;;;;;7344758;32;20168;-57
2024/01/17 08:11:08;;;;;;;9.13;5.85;;;-1.60;99.90;;;;;;7342303;32;20127;-58
2024/01/17 08:15:10;;;;;;;9.57;5.53;;;-1.60;99.90;;;;;;7323092;32;20197;-57
2024/01/17 08:19:12;;;;;;;10.20;5.35;;;-1.50;99.90;;;;;;7337097;32;20123;-58
2024/01/17 08:23:14;;;;;;;13.50;5.90;;;-1.50;99.90;;;;;;7329953;32;20361;-58
2024/01/17 08:27:16;;;;;;;12.85;5.50;;;-1.40;99.90;;;;;;7336982;32;20186;-57
2024/01/17 08:31:18;;;;;;;12.10;5.43;;;-1.40;99.90;;;;;;7322216;32;20221;-57
2024/01/17 08:35:20;;;;;;;10.20;5.50;;;-1.50;99.90;;;;;;7332803;32;20161;-57
2024/01/17 08:39:22;;;;;;;10.93;5.60;;;-1.30;99.90;;;;;;7335458;32;20489;-58
2024/01/17 08:43:24;;;;;;;9.55;5.68;;;-1.20;99.90;;;;;;7336163;32;20217;-57
2024/01/17 08:47:26;;;;;;;9.18;5.37;;;-1.10;99.90;;;;;;7329522;32;20115;-58
2024/01/17 08:51:27;;;;;;;11.10;5.47;;;-0.90;99.90;;;;;;7330754;32;20103;-57
2024/01/17 08:55:29;;;;;;;10.90;5.95;;;-0.90;99.90;;;;;;7333840;32;20618;-56
2024/01/17 08:59:33;;;;;;;10.63;5.55;;;-0.80;99.90;;;;;;7337273;32;20233;-57
2024/01/17 09:03:36;;;;;;;11.52;5.93;;;-0.70;99.90;;;;;;7335806;32;20754;-57
2024/01/17 09:07:38;;;;;;;10.98;5.75;;;-0.70;99.90;;;;;;7339193;32;20217;-57
2024/01/17 09:11:39;;;;;;;12.68;5.75;;;-0.70;99.90;;;;;;7337098;32;20164;-56
2024/01/17 09:15:41;;;;;;;10.57;5.45;;;-0.60;99.90;;;;;;7340571;32;20127;-58
2024/01/17 09:19:43;;;;;;;11.12;5.37;;;-0.60;99.90;;;;;;7339446;32;20582;-57
2024/01/17 09:23:45;;;;;;;12.93;5.50;;;-0.50;99.90;;;;;;7328301;32;20312;-57
2024/01/17 09:27:46;;;;;;;12.98;6.40;;;-0.50;99.90;;;;;;7341357;32;20111;-57
2024/01/17 09:31:50;;;;;;;9.32;5.05;;;-0.40;99.90;;;;;;7342622;32;20200;-57
2024/01/17 09:35:52;;;;;;;11.48;5.10;;;-0.40;99.90;;;;;;7327854;32;20222;-57
2024/01/17 09:40:05;;;;;;;11.00;5.20;;;-0.30;99.90;;;;;;7341189;32;20130;-57
2024/01/17 09:44:07;;;;;;;11.40;5.57;;;-0.20;99.90;;;;;;7336237;32;20120;-58
2024/01/17 09:48:12;;;;;;;11.68;5.20;;;-0.10;99.90;;;;;;7343645;32;20264;-57
2024/01/17 09:52:17;;;;;;;10.95;5.75;;;-0.10;99.90;;;;;;7342236;32;20100;-57
2024/01/17 09:56:23;;;;;;;;;;;-0.10;99.90;;;;;;7348075;32;20127;-57
2024/01/17 10:00:26;;;;;;;11.95;6.07;;;0.00;99.90;;;;;;7341720;32;20154;-57
2024/01/17 10:04:28;;;;;;;10.57;5.62;;;0.10;99.90;;;;;;7346443;32;20104;-57
2024/01/17 10:08:32;;;;;;;11.32;5.72;;;0.10;99.90;;;;;;7340573;32;20133;-57
2024/01/17 10:12:34;;;;;;;12.65;5.87;;;0.10;99.90;;;;;;7328647;32;20561;-57
2024/01/17 10:16:36;;;;;;;11.75;6.03;;;-0.10;99.90;;;;;;7334417;32;20164;-56
2024/01/17 10:20:38;;;;;;;10.50;5.35;;;0.10;99.90;;;;;;7331458;32;20217;-56
2024/01/17 10:24:40;;;;;;;13.52;6.65;;;0.10;99.90;;;;;;7345705;32;20160;-56
2024/01/17 10:28:43;;;;;;;15.95;6.45;;;0.00;99.90;;;;;;7341057;32;20095;-55
2024/01/17 10:32:44;;;;;;;10.65;6.20;;;-0.10;99.90;;;;;;7343905;32;20285;-55
2024/01/17 10:36:47;;;;;;;10.43;6.50;;;0.00;99.90;;;;;;7322496;32;20134;-56
2024/01/17 10:41:06;;;;;;;11.65;6.28;;;0.00;99.90;;;;;;7335729;32;20135;-55
2024/01/17 10:45:18;;;;;;;11.77;6.65;;;0.10;99.90;;;;;;7338318;32;20135;-56
2024/01/17 10:49:22;;;;;;;17.23;6.82;;;0.10;99.90;;;;;;7340072;32;20184;-55
2024/01/17 10:53:26;;;;;;;10.32;6.20;;;0.10;99.90;;;;;;7340481;32;20200;-54
2024/01/17 10:57:29;;;;;;;15.20;6.62;;;0.30;99.90;;;;;;7330566;32;20198;-55
2024/01/17 11:01:37;;;;;;;9.20;5.87;;;0.30;99.90;;;;;;7323239;32;20159;-56
2024/01/17 11:05:50;;;;;;;11.15;6.43;;;0.40;99.90;;;;;;7338849;32;20128;-57
2024/01/17 11:09:53;;;;;;;14.15;6.60;;;0.50;99.90;;;;;;7333828;32;20139;-56
2024/01/17 11:13:57;;;;;;;16.02;6.18;;;0.50;99.90;;;;;;7344760;32;20218;-57
2024/01/17 11:18:01;;;;;;;15.32;6.53;;;0.60;99.90;;;;;;7338315;32;20230;-57
2024/01/17 11:22:03;;;;;;;10.57;6.43;;;0.60;99.90;;;;;;7333767;32;20142;-56
2024/01/17 11:26:42;;;;;;;10.60;6.05;;;0.60;99.90;;;;;;7334133;32;20158;-56
2024/01/17 11:31:03;;;;;;;12.68;6.10;;;0.70;99.90;;;;;;7336485;32;20201;-56
2024/01/17 11:35:05;;;;;;;11.70;6.72;;;0.70;99.90;;;;;;7342908;32;20649;-56
2024/01/17 11:39:10;;;;;;;13.55;6.35;;;0.70;99.90;;;;;;7336113;32;20172;-57
2024/01/17 11:43:15;;;;;;;14.20;6.18;;;0.80;99.90;;;;;;7333802;32;20111;-56
2024/01/17 11:47:20;;;;;;;10.73;6.37;;;0.90;99.90;;;;;;7336605;32;20103;-56
2024/01/17 11:51:26;;;;;;;15.20;6.70;;;0.80;99.90;;;;;;7338950;32;20103;-55
2024/01/17 11:55:31;;;;;;;11.65;6.72;;;0.90;99.90;;;;;;7336805;32;20099;-57
2024/01/17 11:59:34;;;;;;;14.25;6.68;;;0.90;99.90;;;;;;7334780;32;20129;-57
2024/01/17 12:03:37;;;;;;;10.45;6.35;;;0.90;99.90;;;;;;7340852;32;20386;-57
2024/01/17 12:07:47;;;;;;;15.93;6.87;;;1.00;99.90;;;;;;7333864;32;20100;-57
2024/01/17 12:11:49;;;;;;;12.10;7.35;;;1.00;99.90;;;;;;7334260;32;20548;-57
2024/01/17 12:15:55;;;;;;;17.25;7.55;;;1.00;99.90;;;;;;7336783;32;20225;-58
2024/01/17 12:19:57;;;;;;;13.23;6.90;;;1.00;99.90;;;;;;7337236;32;20107;-57
2024/01/17 12:23:59;;;;;;;17.23;7.65;;;1.00;99.90;;;;;;7333924;32;20226;-57
2024/01/17 12:28:02;;;;;;;12.52;7.25;;;1.00;99.90;;;;;;7335341;32;20230;-57
2024/01/17 12:32:04;;;;;;;17.52;7.25;;;0.90;99.90;;;;;;7330883;32;20170;-57
2024/01/17 12:36:16;;;;;;;12.40;7.32;;;0.90;99.90;;;;;;7342133;32;20415;-56
2024/01/17 12:40:17;;;;;;;13.00;7.00;;;1.00;99.90;;;;;;7337567;32;20638;-56
2024/01/17 12:44:19;;;;;;;13.40;8.15;;;0.70;99.90;;;;;;7340633;32;20218;-58
2024/01/17 12:48:22;;;;;;;15.50;8.18;;;0.50;99.90;;;;;;7334999;32;20666;-58
2024/01/17 12:52:24;;;;;;;16.58;8.57;;;0.30;99.90;;;;;;7340516;32;20126;-58
2024/01/17 12:56:26;;;;;;;13.95;8.50;;;0.30;99.90;;;;;;7341338;32;20228;-58
2024/01/17 13:00:28;;;;;;;17.35;8.65;;;0.40;99.90;;;;;;7335682;32;20178;-58
2024/01/17 13:04:30;;;;;;;13.20;7.53;;;0.40;99.90;;;;;;7335111;32;20111;-58
2024/01/17 13:08:32;;;;;;;17.58;9.30;;;0.50;99.90;;;;;;7332129;32;20115;-57
2024/01/17 13:12:34;;;;;;;19.33;9.40;;;0.20;99.90;;;;;;7332961;32;20157;-57
2024/01/17 13:16:36;;;;;;;17.50;9.57;;;-0.20;99.90;;;;;;7342962;32;20228;-58
2024/01/17 13:20:39;;;;;;;16.12;9.25;;;-0.20;99.90;;;;;;7334999;32;20836;-58
2024/01/17 13:24:41;;;;;;;17.80;10.63;;;-0.10;99.90;;;;;;7336012;32;20158;-58
2024/01/17 13:28:43;;;;;;;20.05;12.32;;;-0.20;99.90;;;;;;7344346;32;20241;-58
2024/01/17 13:32:46;;;;;;;22.52;11.02;;;-0.20;99.90;;;;;;7346539;32;20201;-58
2024/01/17 13:36:49;;;;;;;19.73;11.10;;;0.00;99.90;;;;;;7350029;32;20183;-58
2024/01/17 13:40:52;;;;;;;17.90;10.63;;;-0.10;99.90;;;;;;7343309;32;20281;-58
2024/01/17 13:44:57;;;;;;;16.98;10.40;;;0.00;99.90;;;;;;7346948;32;20455;-58
2024/01/17 13:48:59;;;;;;;16.25;10.57;;;0.10;99.90;;;;;;7342708;32;20213;-58
2024/01/17 13:53:08;;;;;;;22.45;10.57;;;-0.10;99.90;;;;;;7346172;32;20107;-58
2024/01/17 13:57:10;;;;;;;19.95;11.10;;;-0.10;99.90;;;;;;7340342;32;20108;-58
2024/01/17 14:01:13;;;;;;;27.90;13.82;;;-0.10;99.90;;;;;;7338063;32;20175;-58
2024/01/17 14:05:15;;;;;;;31.58;13.85;;;0.00;99.90;;;;;;7347153;32;20099;-58
2024/01/17 14:09:21;;;;;;;27.67;12.13;;;0.00;99.90;;;;;;7344646;32;20126;-57
2024/01/17 14:13:24;;;;;;;21.70;10.90;;;0.10;99.90;;;;;;7340465;32;20175;-58
2024/01/17 14:17:26;;;;;;;31.90;15.38;;;0.20;99.90;;;;;;7343652;32;20508;-59
2024/01/17 14:21:27;;;;;;;21.85;12.37;;;0.30;99.90;;;;;;7338515;32;20137;-61
2024/01/17 14:25:31;;;;;;;17.75;10.95;;;0.40;99.90;;;;;;7342680;32;20123;-59
2024/01/17 14:29:33;;;;;;;21.37;11.02;;;0.50;99.90;;;;;;7341437;32;20116;-58
2024/01/17 14:33:35;;;;;;;19.10;10.38;;;0.40;99.90;;;;;;7345113;32;20135;-58
2024/01/17 14:37:41;;;;;;;18.83;10.52;;;0.50;99.90;;;;;;7341230;32;20137;-59
2024/01/17 14:41:42;;;;;;;17.75;10.73;;;0.50;99.90;;;;;;7346790;32;20150;-58
2024/01/17 14:45:44;;;;;;;16.85;10.15;;;0.40;99.90;;;;;;7342823;32;20974;-64
2024/01/17 14:49:46;;;;;;;18.35;9.82;;;0.40;99.90;;;;;;7337083;32;20369;-56
2024/01/17 14:53:48;;;;;;;23.95;12.60;;;0.40;99.90;;;;;;7343615;32;20126;-58
2024/01/17 14:57:50;;;;;;;16.98;10.85;;;0.30;99.90;;;;;;7344538;32;20498;-58
2024/01/17 15:01:53;;;;;;;18.92;11.12;;;0.20;99.90;;;;;;7343095;32;20107;-58
2024/01/17 15:05:54;;;;;;;17.95;9.65;;;0.30;99.90;;;;;;7345931;32;20170;-58
2024/01/17 15:09:57;;;;;;;17.67;9.65;;;0.30;99.90;;;;;;7347771;32;20391;-58
2024/01/17 15:13:59;;;;;;;14.70;10.10;;;0.30;99.90;;;;;;7344732;32;20199;-58
2024/01/17 15:18:02;;;;;;;15.23;10.35;;;0.30;99.90;;;;;;7340014;32;20108;-58
2024/01/17 15:22:05;;;;;;;15.40;10.02;;;0.30;99.90;;;;;;7335607;32;20207;-58
2024/01/17 15:26:08;;;;;;;17.48;9.98;;;0.30;99.90;;;;;;7338326;32;20172;-58
2024/01/17 15:30:11;;;;;;;17.15;10.85;;;0.10;99.90;;;;;;7332842;32;20126;-59
2024/01/17 15:34:17;;;;;;;22.67;12.45;;;0.00;99.90;;;;;;7345565;32;20489;-60
2024/01/17 15:38:19;;;;;;;18.10;10.98;;;0.10;99.90;;;;;;7338077;32;20150;-59
2024/01/17 15:42:21;;;;;;;16.58;10.40;;;0.00;99.90;;;;;;7344782;32;20197;-58
2024/01/17 15:46:23;;;;;;;19.25;11.20;;;0.00;99.90;;;;;;7347072;32;20395;-58
2024/01/17 15:50:24;;;;;;;19.87;11.70;;;-0.10;99.90;;;;;;7343078;32;20119;-59
2024/01/17 15:54:26;;;;;;;18.80;9.55;;;-0.10;99.90;;;;;;7346451;32;21004;-60
2024/01/17 15:58:28;;;;;;;14.43;9.18;;;-0.30;99.90;;;;;;7338894;32;20832;-60
2024/01/17 16:02:30;;;;;;;14.65;8.35;;;-0.30;99.90;;;;;;7343481;32;20524;-58
2024/01/17 16:06:32;;;;;;;12.52;7.65;;;-0.40;99.90;;;;;;7338110;32;20199;-58
2024/01/17 16:10:35;;;;;;;12.80;7.20;;;-0.50;99.90;;;;;;7343209;32;20115;-58
2024/01/17 16:14:37;;;;;;;9.80;6.12;;;-0.40;99.90;;;;;;7342243;32;20130;-58
2024/01/17 16:18:46;;;;;;;15.68;8.00;;;-0.50;99.90;;;;;;7336299;32;20323;-57
2024/01/17 16:22:48;;;;;;;15.02;7.90;;;-0.50;99.90;;;;;;7339639;32;20099;-58
2024/01/17 16:26:50;;;;;;;11.10;7.10;;;-0.50;99.90;;;;;;7342950;32;20188;-57
2024/01/17 16:30:54;;;;;;;12.98;7.57;;;-0.50;99.90;;;;;;7342325;32;20252;-57
2024/01/17 16:34:56;;;;;;;13.57;7.65;;;-0.50;99.90;;;;;;7337987;32;20194;-57
2024/01/17 16:38:58;;;;;;;13.48;7.62;;;-0.50;99.90;;;;;;7339756;32;20148;-56
2024/01/17 16:43:00;;;;;;;11.38;7.40;;;-0.60;99.90;;;;;;7340481;32;20227;-58
2024/01/17 16:47:02;;;;;;;16.60;7.60;;;-0.50;99.90;;;;;;7342284;32;20231;-57
2024/01/17 16:51:06;;;;;;;14.27;7.30;;;-0.60;99.90;;;;;;7337407;32;20240;-57
2024/01/17 16:55:08;;;;;;;12.80;7.53;;;-0.50;99.90;;;;;;7341798;32;20318;-58
2024/01/17 16:59:11;;;;;;;11.52;7.45;;;-0.50;99.90;;;;;;7341974;32;20124;-58
2024/01/17 17:03:12;;;;;;;14.93;8.27;;;-0.50;99.90;;;;;;7340025;32;20237;-58
2024/01/17 17:07:14;;;;;;;13.52;7.82;;;-0.40;99.90;;;;;;7338603;32;20217;-59
2024/01/17 17:11:16;;;;;;;13.45;7.72;;;-0.40;99.90;;;;;;7340416;32;20155;-59
2024/01/17 17:15:18;;;;;;;15.75;8.40;;;-0.30;99.90;;;;;;7337397;32;20807;-58
2024/01/17 17:19:19;;;;;;;13.10;8.10;;;-0.50;99.90;;;;;;7336537;32;20518;-58
2024/01/17 17:23:21;;;;;;;13.20;7.20;;;-0.60;99.90;;;;;;7342580;32;20296;-58
2024/01/17 17:27:23;;;;;;;12.02;8.18;;;-0.60;99.90;;;;;;7342740;32;20199;-57
2024/01/17 17:31:25;;;;;;;15.65;9.40;;;-0.40;99.90;;;;;;7337779;32;20294;-58
2024/01/17 17:35:26;;;;;;;13.20;8.93;;;-0.40;99.90;;;;;;7342869;32;20635;-58
2024/01/17 17:39:28;;;;;;;15.40;8.70;;;-0.30;99.90;;;;;;7340177;32;20794;-58
2024/01/17 17:43:30;;;;;;;13.15;8.85;;;-0.40;99.90;;;;;;7338760;32;20108;-58
2024/01/17 17:47:33;;;;;;;16.08;10.02;;;-0.30;99.90;;;;;;7336999;32;20142;-58
2024/01/17 17:51:35;;;;;;;15.43;8.52;;;-0.30;99.90;;;;;;7338631;32;20216;-57
2024/01/17 17:55:36;;;;;;;12.68;7.78;;;-0.40;99.90;;;;;;7342436;32;20687;-58
2024/01/17 17:59:38;;;;;;;17.00;10.50;;;-0.40;99.90;;;;;;7337108;32;20182;-58
2024/01/17 18:03:40;;;;;;;14.43;7.87;;;-0.50;99.90;;;;;;7341952;32;20668;-58
2024/01/17 18:07:42;;;;;;;11.88;7.85;;;-0.40;99.90;;;;;;7334102;32;20702;-57
2024/01/17 18:11:43;;;;;;;11.27;7.00;;;-0.40;99.90;;;;;;7333450;32;20222;-57
2024/01/17 18:15:45;;;;;;;13.80;7.15;;;-0.40;99.90;;;;;;7336174;32;20126;-58
2024/01/17 18:19:47;;;;;;;14.35;7.50;;;-0.50;99.90;;;;;;7338169;32;20865;-57
2024/01/17 18:23:50;;;;;;;11.68;7.50;;;-0.50;99.90;;;;;;7340523;32;20642;-57
2024/01/17 18:27:52;;;;;;;13.43;7.65;;;-0.50;99.90;;;;;;7345721;32;20230;-57
2024/01/17 18:31:53;;;;;;;13.50;8.43;;;-0.50;99.90;;;;;;7346016;32;20122;-57
2024/01/17 18:35:55;;;;;;;11.60;7.40;;;-0.50;99.90;;;;;;7347599;32;20848;-58
2024/01/17 18:39:57;;;;;;;11.25;7.97;;;-0.50;99.90;;;;;;7343330;32;20194;-58
2024/01/17 18:43:59;;;;;;;14.95;8.88;;;-0.40;99.90;;;;;;7344536;32;20187;-61
2024/01/17 18:48:01;;;;;;;15.60;9.38;;;-0.50;99.90;;;;;;7344261;32;20472;-57
2024/01/17 18:52:03;;;;;;;17.70;10.82;;;-0.80;99.90;;;;;;7343403;32;20178;-57
2024/01/17 18:56:06;;;;;;;15.75;10.02;;;-0.80;99.90;;;;;;7343289;32;20188;-58
2024/01/17 19:00:08;;;;;;;16.00;9.77;;;-0.90;99.90;;;;;;7337176;32;20135;-58
2024/01/17 19:04:11;;;;;;;18.12;10.98;;;-0.70;99.90;;;;;;7338178;32;20108;-58
2024/01/17 19:08:13;;;;;;;16.87;9.77;;;-0.60;99.90;;;;;;7344617;32;20769;-58
2024/01/17 19:12:16;;;;;;;17.08;10.05;;;-0.60;99.90;;;;;;7336923;32;20537;-58
2024/01/17 19:16:18;;;;;;;18.37;10.02;;;-0.60;99.90;;;;;;7339161;32;20219;-59
2024/01/17 19:20:21;;;;;;;18.83;11.10;;;-0.50;99.90;;;;;;7346683;32;20131;-60
2024/01/17 19:24:23;;;;;;;19.87;11.38;;;-0.50;99.90;;;;;;7345291;32;21348;-58
2024/01/17 19:28:25;;;;;;;17.27;10.82;;;-0.40;99.90;;;;;;7342403;32;20226;-59
2024/01/17 19:32:27;;;;;;;14.57;9.38;;;-0.30;99.90;;;;;;7345058;32;20214;-59
2024/01/17 19:36:29;;;;;;;16.33;10.27;;;-0.50;99.90;;;;;;7347484;32;20099;-59
2024/01/17 19:40:35;;;;;;;17.52;10.35;;;-0.40;99.90;;;;;;7320595;32;20156;-58
2024/01/17 19:44:37;;;;;;;16.62;10.32;;;-0.50;99.90;;;;;;7344412;32;20581;-56
2024/01/17 19:48:43;;;;;;;17.73;11.32;;;-0.40;99.90;;;;;;7341766;32;20218;-58
2024/01/17 19:52:45;;;;;;;16.33;10.75;;;-0.30;99.90;;;;;;7347541;32;20111;-57
2024/01/17 19:56:46;;;;;;;24.20;11.68;;;-0.20;99.90;;;;;;7343044;32;20970;-56
2024/01/17 20:00:49;;;;;;;22.95;11.27;;;-0.20;99.90;;;;;;7344143;32;20122;-57
2024/01/17 20:04:50;;;;;;;19.67;11.12;;;-0.20;99.90;;;;;;7344348;32;20582;-57
2024/01/17 20:08:52;;;;;;;19.75;10.93;;;-0.20;99.90;;;;;;7339552;32;20153;-56
2024/01/17 20:13:00;;;;;;;24.73;13.32;;;-0.20;99.90;;;;;;7341339;32;20153;-55
2024/01/17 20:17:02;;;;;;;24.70;12.98;;;-0.20;99.90;;;;;;7343959;32;20160;-57
2024/01/17 20:21:04;;;;;;;22.10;12.48;;;-0.20;99.90;;;;;;7342205;32;20115;-55
2024/01/17 20:25:13;;;;;;;20.70;12.10;;;-0.20;99.90;;;;;;7345094;32;20099;-56
2024/01/17 20:29:16;;;;;;;22.83;12.70;;;-0.20;99.90;;;;;;7332806;32;20152;-55
2024/01/17 20:33:17;;;;;;;21.83;13.35;;;-0.10;99.90;;;;;;7344504;32;20182;-55
2024/01/17 20:37:20;;;;;;;22.58;13.20;;;-0.10;99.90;;;;;;7333251;32;20112;-54
2024/01/17 20:41:23;;;;;;;27.95;14.25;;;-0.10;99.90;;;;;;7329964;32;21417;-58
2024/01/17 20:45:32;;;;;;;23.60;13.88;;;-0.10;99.90;;;;;;7340434;32;20111;-58
2024/01/17 20:49:34;;;;;;;20.73;13.00;;;-0.10;99.90;;;;;;7328516;32;20154;-57
2024/01/17 20:53:36;;;;;;;24.02;14.30;;;-0.10;99.90;;;;;;7340099;32;20203;-58